sensor_id;sensor_type;location;lat;lon;timestamp;P1;durP1;ratioP1;P2;durP2;ratioP2
57826;SDS011;43656;57.746;11.780;2023-03-20T00:01:56;263.33;;;86.28;;
57826;SDS011;43656;57.746;11.780;2023-03-20T00:04:21;241.27;;;84.25;;
57826;SDS011;43656;57.746;11.780;2023-03-20T00:06:46;246.02;;;84.90;;
57826;SDS011;43656;57.746;11.780;2023-03-20T00:09:12;260.90;;;83.93;;
57826;SDS011;43656;57.746;11.780;2023-03-20T00:11:47;264.23;;;85.05;;
57826;SDS011;43656;57.746;11.780;2023-03-20T00:14:16;257.15;;;82.65;;
57826;SDS011;43656;57.746;11.780;2023-03-20T00:16:45;248.82;;;82.95;;
57826;SDS011;43656;57.746;11.780;2023-03-20T00:21:47;227.68;;;78.47;;
57826;SDS011;43656;57.746;11.780;2023-03-20T00:24:13;226.40;;;82.18;;
57826;SDS011;43656;57.746;11.780;2023-03-20T00:26:40;234.70;;;80.78;;
57826;SDS011;43656;57.746;11.780;2023-03-20T00:29:09;228.93;;;80.93;;
57826;SDS011;43656;57.746;11.780;2023-03-20T00:31:50;206.95;;;79.18;;
57826;SDS011;43656;57.746;11.780;2023-03-20T00:34:17;216.60;;;77.63;;
57826;SDS011;43656;57.746;11.780;2023-03-20T00:36:46;208.65;;;76.45;;
57826;SDS011;43656;57.746;11.780;2023-03-20T00:39:11;214.45;;;76.03;;
57826;SDS011;43656;57.746;11.780;2023-03-20T00:47:02;208.20;;;77.32;;
57826;SDS011;43656;57.746;11.780;2023-03-20T00:49:36;204.77;;;74.63;;
57826;SDS011;43656;57.746;11.780;2023-03-20T00:52:04;207.52;;;74.00;;
57826;SDS011;43656;57.746;11.780;2023-03-20T00:54:30;202.45;;;76.25;;
57826;SDS011;43656;57.746;11.780;2023-03-20T00:57:06;199.20;;;74.80;;
57826;SDS011;43656;57.746;11.780;2023-03-20T00:59:37;213.82;;;73.00;;
57826;SDS011;43656;57.746;11.780;2023-03-20T01:02:06;231.88;;;77.03;;
57826;SDS011;43656;57.746;11.780;2023-03-20T01:04:36;217.70;;;76.70;;
57826;SDS011;43656;57.746;11.780;2023-03-20T01:07:06;219.97;;;75.60;;
57826;SDS011;43656;57.746;11.780;2023-03-20T01:09:36;248.98;;;78.90;;
57826;SDS011;43656;57.746;11.780;2023-03-20T01:12:02;234.63;;;73.93;;
57826;SDS011;43656;57.746;11.780;2023-03-20T01:14:28;243.95;;;73.75;;
57826;SDS011;43656;57.746;11.780;2023-03-20T01:16:54;230.73;;;70.30;;
57826;SDS011;43656;57.746;11.780;2023-03-20T01:19:19;223.63;;;72.38;;
57826;SDS011;43656;57.746;11.780;2023-03-20T01:21:45;257.35;;;70.88;;
57826;SDS011;43656;57.746;11.780;2023-03-20T01:24:11;218.55;;;67.50;;
57826;SDS011;43656;57.746;11.780;2023-03-20T01:26:37;212.65;;;65.47;;
57826;SDS011;43656;57.746;11.780;2023-03-20T01:29:18;201.85;;;64.60;;
57826;SDS011;43656;57.746;11.780;2023-03-20T01:31:46;179.40;;;60.25;;
57826;SDS011;43656;57.746;11.780;2023-03-20T01:34:12;179.57;;;61.20;;
57826;SDS011;43656;57.746;11.780;2023-03-20T01:36:40;164.82;;;57.53;;
57826;SDS011;43656;57.746;11.780;2023-03-20T01:39:09;154.20;;;56.75;;
57826;SDS011;43656;57.746;11.780;2023-03-20T01:41:35;129.90;;;52.78;;
57826;SDS011;43656;57.746;11.780;2023-03-20T01:44:06;126.03;;;53.90;;
57826;SDS011;43656;57.746;11.780;2023-03-20T01:46:43;133.90;;;52.63;;
57826;SDS011;43656;57.746;11.780;2023-03-20T01:51:43;119.20;;;50.33;;
57826;SDS011;43656;57.746;11.780;2023-03-20T01:54:25;127.22;;;52.22;;
57826;SDS011;43656;57.746;11.780;2023-03-20T01:56:59;137.05;;;52.67;;
57826;SDS011;43656;57.746;11.780;2023-03-20T01:59:37;148.60;;;53.35;;
57826;SDS011;43656;57.746;11.780;2023-03-20T02:02:08;156.75;;;55.47;;
57826;SDS011;43656;57.746;11.780;2023-03-20T02:04:38;179.93;;;55.83;;
57826;SDS011;43656;57.746;11.780;2023-03-20T02:07:07;155.32;;;52.78;;
57826;SDS011;43656;57.746;11.780;2023-03-20T02:09:35;175.75;;;53.10;;
57826;SDS011;43656;57.746;11.780;2023-03-20T02:12:01;188.40;;;51.17;;
57826;SDS011;43656;57.746;11.780;2023-03-20T02:14:27;170.93;;;51.30;;
57826;SDS011;43656;57.746;11.780;2023-03-20T02:16:53;235.07;;;53.03;;
57826;SDS011;43656;57.746;11.780;2023-03-20T02:41:07;134.75;;;40.88;;
57826;SDS011;43656;57.746;11.780;2023-03-20T02:44:10;119.70;;;35.90;;
57826;SDS011;43656;57.746;11.780;2023-03-20T02:52:10;107.43;;;33.88;;
57826;SDS011;43656;57.746;11.780;2023-03-20T02:57:30;124.53;;;34.40;;
57826;SDS011;43656;57.746;11.780;2023-03-20T03:00:27;127.68;;;32.72;;
57826;SDS011;43656;57.746;11.780;2023-03-20T03:03:03;113.57;;;33.17;;
57826;SDS011;43656;57.746;11.780;2023-03-20T03:05:50;118.55;;;31.92;;
57826;SDS011;43656;57.746;11.780;2023-03-20T03:08:17;130.82;;;33.38;;
57826;SDS011;43656;57.746;11.780;2023-03-20T03:10:54;148.35;;;36.30;;
57826;SDS011;43656;57.746;11.780;2023-03-20T03:13:28;136.63;;;33.75;;
57826;SDS011;43656;57.746;11.780;2023-03-20T03:15:58;123.55;;;31.88;;
57826;SDS011;43656;57.746;11.780;2023-03-20T03:18:28;127.00;;;31.20;;
57826;SDS011;43656;57.746;11.780;2023-03-20T03:20:56;150.93;;;32.30;;
57826;SDS011;43656;57.746;11.780;2023-03-20T03:23:27;133.32;;;30.45;;
57826;SDS011;43656;57.746;11.780;2023-03-20T03:25:56;116.70;;;29.05;;
57826;SDS011;43656;57.746;11.780;2023-03-20T03:31:07;125.85;;;27.80;;
57826;SDS011;43656;57.746;11.780;2023-03-20T03:33:37;115.32;;;28.52;;
57826;SDS011;43656;57.746;11.780;2023-03-20T03:46:48;106.85;;;26.20;;
57826;SDS011;43656;57.746;11.780;2023-03-20T03:49:26;120.80;;;25.88;;
57826;SDS011;43656;57.746;11.780;2023-03-20T03:51:57;127.93;;;27.17;;
57826;SDS011;43656;57.746;11.780;2023-03-20T03:54:47;121.97;;;25.90;;
57826;SDS011;43656;57.746;11.780;2023-03-20T03:57:18;109.90;;;24.85;;
57826;SDS011;43656;57.746;11.780;2023-03-20T03:59:49;125.32;;;26.50;;
57826;SDS011;43656;57.746;11.780;2023-03-20T04:02:17;122.57;;;26.98;;
57826;SDS011;43656;57.746;11.780;2023-03-20T04:04:46;94.03;;;24.58;;
57826;SDS011;43656;57.746;11.780;2023-03-20T04:07:14;99.03;;;25.23;;
57826;SDS011;43656;57.746;11.780;2023-03-20T04:09:40;97.93;;;23.90;;
57826;SDS011;43656;57.746;11.780;2023-03-20T04:12:30;101.10;;;25.08;;
57826;SDS011;43656;57.746;11.780;2023-03-20T04:14:59;88.50;;;23.35;;
57826;SDS011;43656;57.746;11.780;2023-03-20T04:17:25;91.18;;;25.02;;
57826;SDS011;43656;57.746;11.780;2023-03-20T04:19:50;81.65;;;23.92;;
57826;SDS011;43656;57.746;11.780;2023-03-20T04:22:16;85.25;;;23.77;;
57826;SDS011;43656;57.746;11.780;2023-03-20T04:24:41;76.70;;;22.98;;
57826;SDS011;43656;57.746;11.780;2023-03-20T04:27:07;98.97;;;24.25;;
57826;SDS011;43656;57.746;11.780;2023-03-20T04:29:32;106.38;;;25.85;;
57826;SDS011;43656;57.746;11.780;2023-03-20T04:31:58;118.60;;;26.23;;
57826;SDS011;43656;57.746;11.780;2023-03-20T04:34:23;118.43;;;26.08;;
57826;SDS011;43656;57.746;11.780;2023-03-20T04:36:49;124.78;;;26.70;;
57826;SDS011;43656;57.746;11.780;2023-03-20T04:39:14;104.47;;;25.05;;
57826;SDS011;43656;57.746;11.780;2023-03-20T04:41:40;113.78;;;26.52;;
57826;SDS011;43656;57.746;11.780;2023-03-20T04:44:06;88.32;;;25.23;;
57826;SDS011;43656;57.746;11.780;2023-03-20T04:46:31;97.72;;;25.10;;
57826;SDS011;43656;57.746;11.780;2023-03-20T04:48:57;100.20;;;24.65;;
57826;SDS011;43656;57.746;11.780;2023-03-20T04:51:22;94.82;;;24.27;;
57826;SDS011;43656;57.746;11.780;2023-03-20T04:53:47;87.20;;;24.20;;
57826;SDS011;43656;57.746;11.780;2023-03-20T04:56:13;76.53;;;23.13;;
57826;SDS011;43656;57.746;11.780;2023-03-20T04:58:38;88.15;;;25.20;;
57826;SDS011;43656;57.746;11.780;2023-03-20T05:01:04;104.15;;;25.77;;
57826;SDS011;43656;57.746;11.780;2023-03-20T05:03:30;86.90;;;22.38;;
57826;SDS011;43656;57.746;11.780;2023-03-20T05:05:55;63.28;;;19.48;;
57826;SDS011;43656;57.746;11.780;2023-03-20T05:08:21;59.25;;;19.60;;
57826;SDS011;43656;57.746;11.780;2023-03-20T05:10:46;53.95;;;17.92;;
57826;SDS011;43656;57.746;11.780;2023-03-20T05:13:12;47.75;;;16.90;;
57826;SDS011;43656;57.746;11.780;2023-03-20T05:15:37;64.10;;;19.13;;
57826;SDS011;43656;57.746;11.780;2023-03-20T05:18:03;74.57;;;20.10;;
57826;SDS011;43656;57.746;11.780;2023-03-20T05:20:28;63.42;;;19.85;;
57826;SDS011;43656;57.746;11.780;2023-03-20T05:22:54;58.05;;;17.17;;
57826;SDS011;43656;57.746;11.780;2023-03-20T05:25:19;48.00;;;16.13;;
57826;SDS011;43656;57.746;11.780;2023-03-20T05:27:45;42.70;;;15.93;;
57826;SDS011;43656;57.746;11.780;2023-03-20T05:30:11;45.33;;;15.90;;
57826;SDS011;43656;57.746;11.780;2023-03-20T05:32:38;55.05;;;16.83;;
57826;SDS011;43656;57.746;11.780;2023-03-20T05:35:04;43.47;;;15.80;;
57826;SDS011;43656;57.746;11.780;2023-03-20T05:37:31;49.72;;;16.15;;
57826;SDS011;43656;57.746;11.780;2023-03-20T05:39:56;57.67;;;17.17;;
57826;SDS011;43656;57.746;11.780;2023-03-20T05:42:22;60.10;;;16.60;;
57826;SDS011;43656;57.746;11.780;2023-03-20T05:44:47;47.47;;;14.48;;
57826;SDS011;43656;57.746;11.780;2023-03-20T05:47:12;51.75;;;14.93;;
57826;SDS011;43656;57.746;11.780;2023-03-20T05:49:38;53.45;;;15.18;;
57826;SDS011;43656;57.746;11.780;2023-03-20T05:52:03;56.35;;;15.25;;
57826;SDS011;43656;57.746;11.780;2023-03-20T05:54:29;79.38;;;15.65;;
57826;SDS011;43656;57.746;11.780;2023-03-20T05:56:54;61.83;;;15.80;;
57826;SDS011;43656;57.746;11.780;2023-03-20T05:59:19;65.97;;;15.32;;
57826;SDS011;43656;57.746;11.780;2023-03-20T06:01:45;71.05;;;16.52;;
57826;SDS011;43656;57.746;11.780;2023-03-20T06:04:11;65.30;;;14.55;;
57826;SDS011;43656;57.746;11.780;2023-03-20T06:06:36;62.15;;;15.32;;
57826;SDS011;43656;57.746;11.780;2023-03-20T06:09:02;45.97;;;14.13;;
57826;SDS011;43656;57.746;11.780;2023-03-20T06:11:28;53.53;;;14.30;;
57826;SDS011;43656;57.746;11.780;2023-03-20T06:13:54;49.15;;;13.82;;
57826;SDS011;43656;57.746;11.780;2023-03-20T06:16:22;52.72;;;15.30;;
57826;SDS011;43656;57.746;11.780;2023-03-20T06:18:47;43.55;;;14.52;;
57826;SDS011;43656;57.746;11.780;2023-03-20T06:21:13;51.60;;;15.32;;
57826;SDS011;43656;57.746;11.780;2023-03-20T06:23:38;46.67;;;15.38;;
57826;SDS011;43656;57.746;11.780;2023-03-20T06:26:04;45.78;;;14.80;;
57826;SDS011;43656;57.746;11.780;2023-03-20T06:28:30;42.65;;;15.55;;
57826;SDS011;43656;57.746;11.780;2023-03-20T06:30:56;47.75;;;15.10;;
57826;SDS011;43656;57.746;11.780;2023-03-20T06:33:22;37.85;;;13.35;;
57826;SDS011;43656;57.746;11.780;2023-03-20T06:35:47;43.55;;;14.00;;
57826;SDS011;43656;57.746;11.780;2023-03-20T06:38:13;40.88;;;14.00;;
57826;SDS011;43656;57.746;11.780;2023-03-20T06:40:39;31.30;;;12.32;;
57826;SDS011;43656;57.746;11.780;2023-03-20T06:43:05;32.10;;;13.48;;
57826;SDS011;43656;57.746;11.780;2023-03-20T06:45:31;32.92;;;12.68;;
57826;SDS011;43656;57.746;11.780;2023-03-20T06:47:56;27.52;;;12.15;;
57826;SDS011;43656;57.746;11.780;2023-03-20T06:50:22;32.45;;;12.10;;
57826;SDS011;43656;57.746;11.780;2023-03-20T06:52:47;28.40;;;11.65;;
57826;SDS011;43656;57.746;11.780;2023-03-20T06:55:13;24.95;;;10.80;;
57826;SDS011;43656;57.746;11.780;2023-03-20T06:57:38;28.15;;;10.98;;
57826;SDS011;43656;57.746;11.780;2023-03-20T07:00:04;26.00;;;9.80;;
57826;SDS011;43656;57.746;11.780;2023-03-20T07:02:31;24.67;;;10.52;;
57826;SDS011;43656;57.746;11.780;2023-03-20T07:04:57;27.58;;;10.35;;
57826;SDS011;43656;57.746;11.780;2023-03-20T07:07:22;24.73;;;8.82;;
57826;SDS011;43656;57.746;11.780;2023-03-20T07:09:48;21.63;;;9.15;;
57826;SDS011;43656;57.746;11.780;2023-03-20T07:12:14;21.90;;;8.95;;
57826;SDS011;43656;57.746;11.780;2023-03-20T07:14:43;22.17;;;9.20;;
57826;SDS011;43656;57.746;11.780;2023-03-20T07:17:09;22.85;;;8.73;;
57826;SDS011;43656;57.746;11.780;2023-03-20T07:19:36;16.92;;;8.35;;
57826;SDS011;43656;57.746;11.780;2023-03-20T07:22:02;15.50;;;7.00;;
57826;SDS011;43656;57.746;11.780;2023-03-20T07:24:30;16.33;;;7.45;;
57826;SDS011;43656;57.746;11.780;2023-03-20T07:26:56;15.57;;;6.38;;
57826;SDS011;43656;57.746;11.780;2023-03-20T07:29:22;17.38;;;7.22;;
57826;SDS011;43656;57.746;11.780;2023-03-20T07:31:47;17.75;;;6.30;;
57826;SDS011;43656;57.746;11.780;2023-03-20T07:34:13;15.25;;;6.20;;
57826;SDS011;43656;57.746;11.780;2023-03-20T07:36:38;12.75;;;6.13;;
57826;SDS011;43656;57.746;11.780;2023-03-20T07:39:05;16.60;;;5.93;;
57826;SDS011;43656;57.746;11.780;2023-03-20T07:41:32;12.38;;;5.10;;
57826;SDS011;43656;57.746;11.780;2023-03-20T07:43:57;11.73;;;4.55;;
57826;SDS011;43656;57.746;11.780;2023-03-20T07:46:23;8.07;;;4.15;;
57826;SDS011;43656;57.746;11.780;2023-03-20T07:48:49;8.65;;;4.05;;
57826;SDS011;43656;57.746;11.780;2023-03-20T07:51:15;8.68;;;4.35;;
57826;SDS011;43656;57.746;11.780;2023-03-20T07:53:40;8.25;;;3.63;;
57826;SDS011;43656;57.746;11.780;2023-03-20T07:56:06;8.23;;;3.50;;
57826;SDS011;43656;57.746;11.780;2023-03-20T07:58:32;10.45;;;3.38;;
57826;SDS011;43656;57.746;11.780;2023-03-20T08:00:57;11.02;;;3.35;;
57826;SDS011;43656;57.746;11.780;2023-03-20T08:03:23;11.13;;;3.33;;
57826;SDS011;43656;57.746;11.780;2023-03-20T08:05:49;8.48;;;3.05;;
57826;SDS011;43656;57.746;11.780;2023-03-20T08:08:14;13.68;;;2.80;;
57826;SDS011;43656;57.746;11.780;2023-03-20T08:10:40;9.50;;;2.83;;
57826;SDS011;43656;57.746;11.780;2023-03-20T08:13:05;7.45;;;2.60;;
57826;SDS011;43656;57.746;11.780;2023-03-20T08:15:31;10.25;;;2.50;;
57826;SDS011;43656;57.746;11.780;2023-03-20T08:17:56;11.38;;;3.17;;
57826;SDS011;43656;57.746;11.780;2023-03-20T08:20:22;9.13;;;2.30;;
57826;SDS011;43656;57.746;11.780;2023-03-20T08:22:48;6.88;;;2.03;;
57826;SDS011;43656;57.746;11.780;2023-03-20T08:25:14;8.05;;;2.45;;
57826;SDS011;43656;57.746;11.780;2023-03-20T08:27:40;11.40;;;2.63;;
57826;SDS011;43656;57.746;11.780;2023-03-20T08:30:06;9.65;;;2.08;;
57826;SDS011;43656;57.746;11.780;2023-03-20T08:32:33;9.70;;;2.50;;
57826;SDS011;43656;57.746;11.780;2023-03-20T08:34:59;6.47;;;1.52;;
57826;SDS011;43656;57.746;11.780;2023-03-20T08:37:25;8.75;;;1.67;;
57826;SDS011;43656;57.746;11.780;2023-03-20T08:39:52;10.75;;;2.17;;
57826;SDS011;43656;57.746;11.780;2023-03-20T08:42:17;10.25;;;1.88;;
57826;SDS011;43656;57.746;11.780;2023-03-20T08:44:43;9.38;;;2.25;;
57826;SDS011;43656;57.746;11.780;2023-03-20T08:47:09;7.70;;;1.50;;
57826;SDS011;43656;57.746;11.780;2023-03-20T08:49:36;13.38;;;1.88;;
57826;SDS011;43656;57.746;11.780;2023-03-20T08:52:01;8.68;;;1.90;;
57826;SDS011;43656;57.746;11.780;2023-03-20T08:54:27;10.57;;;1.92;;
57826;SDS011;43656;57.746;11.780;2023-03-20T08:56:53;9.30;;;1.73;;
57826;SDS011;43656;57.746;11.780;2023-03-20T08:59:19;8.68;;;1.65;;
57826;SDS011;43656;57.746;11.780;2023-03-20T09:01:45;8.55;;;2.33;;
57826;SDS011;43656;57.746;11.780;2023-03-20T09:04:11;11.23;;;1.85;;
57826;SDS011;43656;57.746;11.780;2023-03-20T09:06:37;12.85;;;1.63;;
57826;SDS011;43656;57.746;11.780;2023-03-20T09:09:03;11.63;;;2.13;;
57826;SDS011;43656;57.746;11.780;2023-03-20T09:11:29;10.85;;;1.77;;
57826;SDS011;43656;57.746;11.780;2023-03-20T09:13:54;7.45;;;1.50;;
57826;SDS011;43656;57.746;11.780;2023-03-20T09:16:20;13.60;;;1.75;;
57826;SDS011;43656;57.746;11.780;2023-03-20T09:18:45;13.20;;;1.73;;
57826;SDS011;43656;57.746;11.780;2023-03-20T09:21:11;16.70;;;1.88;;
57826;SDS011;43656;57.746;11.780;2023-03-20T09:23:36;10.07;;;1.73;;
57826;SDS011;43656;57.746;11.780;2023-03-20T09:26:01;11.77;;;1.77;;
57826;SDS011;43656;57.746;11.780;2023-03-20T09:28:27;10.07;;;1.70;;
57826;SDS011;43656;57.746;11.780;2023-03-20T09:30:56;9.43;;;1.50;;
57826;SDS011;43656;57.746;11.780;2023-03-20T09:33:22;13.43;;;1.95;;
57826;SDS011;43656;57.746;11.780;2023-03-20T09:35:48;17.13;;;1.95;;
57826;SDS011;43656;57.746;11.780;2023-03-20T09:38:14;9.98;;;1.50;;
57826;SDS011;43656;57.746;11.780;2023-03-20T09:40:53;11.43;;;1.55;;
57826;SDS011;43656;57.746;11.780;2023-03-20T09:51:35;8.93;;;1.42;;
57826;SDS011;43656;57.746;11.780;2023-03-20T09:54:26;16.08;;;1.55;;
57826;SDS011;43656;57.746;11.780;2023-03-20T09:56:56;12.43;;;2.47;;
57826;SDS011;43656;57.746;11.780;2023-03-20T09:59:22;16.67;;;2.90;;
57826;SDS011;43656;57.746;11.780;2023-03-20T10:01:55;10.43;;;1.52;;
57826;SDS011;43656;57.746;11.780;2023-03-20T10:04:24;15.18;;;1.63;;
57826;SDS011;43656;57.746;11.780;2023-03-20T10:06:52;13.82;;;2.47;;
57826;SDS011;43656;57.746;11.780;2023-03-20T10:09:23;12.73;;;1.85;;
57826;SDS011;43656;57.746;11.780;2023-03-20T10:19:50;16.33;;;2.00;;
57826;SDS011;43656;57.746;11.780;2023-03-20T10:22:22;15.38;;;1.92;;
57826;SDS011;43656;57.746;11.780;2023-03-20T10:38:35;12.82;;;1.77;;
57826;SDS011;43656;57.746;11.780;2023-03-20T10:41:01;12.77;;;2.17;;
57826;SDS011;43656;57.746;11.780;2023-03-20T10:43:32;14.05;;;1.90;;
57826;SDS011;43656;57.746;11.780;2023-03-20T10:46:03;17.17;;;2.55;;
57826;SDS011;43656;57.746;11.780;2023-03-20T10:48:51;20.98;;;3.35;;
57826;SDS011;43656;57.746;11.780;2023-03-20T10:51:22;15.30;;;2.25;;
57826;SDS011;43656;57.746;11.780;2023-03-20T10:54:01;14.13;;;2.00;;
57826;SDS011;43656;57.746;11.780;2023-03-20T10:59:08;17.90;;;2.72;;
57826;SDS011;43656;57.746;11.780;2023-03-20T11:01:40;12.70;;;2.35;;
57826;SDS011;43656;57.746;11.780;2023-03-20T11:04:05;24.48;;;2.75;;
57826;SDS011;43656;57.746;11.780;2023-03-20T11:06:32;15.07;;;2.63;;
57826;SDS011;43656;57.746;11.780;2023-03-20T11:09:15;24.25;;;3.15;;
57826;SDS011;43656;57.746;11.780;2023-03-20T11:11:44;21.30;;;2.90;;
57826;SDS011;43656;57.746;11.780;2023-03-20T11:14:18;15.15;;;2.38;;
57826;SDS011;43656;57.746;11.780;2023-03-20T11:16:49;17.10;;;2.50;;
57826;SDS011;43656;57.746;11.780;2023-03-20T11:19:20;17.67;;;2.60;;
57826;SDS011;43656;57.746;11.780;2023-03-20T11:21:50;18.42;;;2.15;;
57826;SDS011;43656;57.746;11.780;2023-03-20T11:24:33;20.25;;;2.72;;
57826;SDS011;43656;57.746;11.780;2023-03-20T11:27:04;15.60;;;2.47;;
57826;SDS011;43656;57.746;11.780;2023-03-20T11:29:39;23.13;;;3.25;;
57826;SDS011;43656;57.746;11.780;2023-03-20T11:32:07;20.23;;;2.67;;
57826;SDS011;43656;57.746;11.780;2023-03-20T11:38:18;19.00;;;3.50;;
57826;SDS011;43656;57.746;11.780;2023-03-20T11:40:45;23.58;;;3.20;;
57826;SDS011;43656;57.746;11.780;2023-03-20T11:43:23;22.02;;;2.80;;
57826;SDS011;43656;57.746;11.780;2023-03-20T11:45:58;16.58;;;3.10;;
57826;SDS011;43656;57.746;11.780;2023-03-20T11:48:46;26.10;;;3.00;;
57826;SDS011;43656;57.746;11.780;2023-03-20T11:51:13;19.50;;;3.15;;
57826;SDS011;43656;57.746;11.780;2023-03-20T11:58:49;25.33;;;3.13;;
57826;SDS011;43656;57.746;11.780;2023-03-20T12:01:26;17.75;;;2.80;;
57826;SDS011;43656;57.746;11.780;2023-03-20T12:04:01;23.08;;;2.70;;
57826;SDS011;43656;57.746;11.780;2023-03-20T12:12:14;15.80;;;3.25;;
57826;SDS011;43656;57.746;11.780;2023-03-20T12:15:09;19.90;;;2.80;;
57826;SDS011;43656;57.746;11.780;2023-03-20T12:20:21;24.42;;;3.45;;
57826;SDS011;43656;57.746;11.780;2023-03-20T12:26:31;19.63;;;3.47;;
57826;SDS011;43656;57.746;11.780;2023-03-20T12:31:45;21.00;;;3.20;;
57826;SDS011;43656;57.746;11.780;2023-03-20T12:37:09;25.00;;;3.92;;
57826;SDS011;43656;57.746;11.780;2023-03-20T12:39:37;18.52;;;3.22;;
57826;SDS011;43656;57.746;11.780;2023-03-20T12:45:11;19.50;;;3.55;;
57826;SDS011;43656;57.746;11.780;2023-03-20T12:50:36;17.38;;;2.90;;
57826;SDS011;43656;57.746;11.780;2023-03-20T12:58:52;20.48;;;3.08;;
57826;SDS011;43656;57.746;11.780;2023-03-20T13:01:23;20.35;;;3.30;;
57826;SDS011;43656;57.746;11.780;2023-03-20T13:28:54;19.48;;;3.20;;
57826;SDS011;43656;57.746;11.780;2023-03-20T13:31:46;19.42;;;2.97;;
57826;SDS011;43656;57.746;11.780;2023-03-20T13:39:39;25.15;;;3.97;;
57826;SDS011;43656;57.746;11.780;2023-03-20T13:42:14;17.50;;;2.58;;
57826;SDS011;43656;57.746;11.780;2023-03-20T13:44:43;16.58;;;2.60;;
57826;SDS011;43656;57.746;11.780;2023-03-20T13:49:41;18.00;;;2.90;;
57826;SDS011;43656;57.746;11.780;2023-03-20T14:00:58;19.08;;;2.63;;
57826;SDS011;43656;57.746;11.780;2023-03-20T14:03:34;12.32;;;2.58;;
57826;SDS011;43656;57.746;11.780;2023-03-20T14:09:04;23.77;;;3.13;;
57826;SDS011;43656;57.746;11.780;2023-03-20T14:11:49;17.58;;;2.50;;
57826;SDS011;43656;57.746;11.780;2023-03-20T14:14:23;21.90;;;3.08;;
57826;SDS011;43656;57.746;11.780;2023-03-20T14:17:01;20.80;;;3.17;;
57826;SDS011;43656;57.746;11.780;2023-03-20T14:19:48;16.15;;;2.13;;
57826;SDS011;43656;57.746;11.780;2023-03-20T14:22:22;20.33;;;2.53;;
57826;SDS011;43656;57.746;11.780;2023-03-20T14:27:19;21.35;;;2.47;;
57826;SDS011;43656;57.746;11.780;2023-03-20T14:29:45;17.80;;;2.28;;
57826;SDS011;43656;57.746;11.780;2023-03-20T14:34:52;15.63;;;2.05;;
57826;SDS011;43656;57.746;11.780;2023-03-20T14:37:37;13.65;;;2.40;;
57826;SDS011;43656;57.746;11.780;2023-03-20T14:40:27;13.65;;;1.77;;
57826;SDS011;43656;57.746;11.780;2023-03-20T14:45:46;17.20;;;2.42;;
57826;SDS011;43656;57.746;11.780;2023-03-20T14:53:53;12.02;;;2.45;;
57826;SDS011;43656;57.746;11.780;2023-03-20T14:56:41;14.20;;;2.15;;
57826;SDS011;43656;57.746;11.780;2023-03-20T14:59:08;15.02;;;2.30;;
57826;SDS011;43656;57.746;11.780;2023-03-20T15:06:31;19.85;;;2.85;;
57826;SDS011;43656;57.746;11.780;2023-03-20T15:08:59;19.25;;;3.00;;
57826;SDS011;43656;57.746;11.780;2023-03-20T15:11:31;19.85;;;1.98;;
57826;SDS011;43656;57.746;11.780;2023-03-20T15:13:58;16.90;;;2.92;;
57826;SDS011;43656;57.746;11.780;2023-03-20T15:16:29;20.33;;;2.88;;
57826;SDS011;43656;57.746;11.780;2023-03-20T15:18:58;18.58;;;2.92;;
57826;SDS011;43656;57.746;11.780;2023-03-20T15:23:55;21.15;;;3.00;;
57826;SDS011;43656;57.746;11.780;2023-03-20T15:26:21;24.17;;;2.83;;
57826;SDS011;43656;57.746;11.780;2023-03-20T15:28:49;21.25;;;2.78;;
57826;SDS011;43656;57.746;11.780;2023-03-20T15:31:24;18.55;;;3.45;;
57826;SDS011;43656;57.746;11.780;2023-03-20T15:33:53;31.52;;;3.28;;
57826;SDS011;43656;57.746;11.780;2023-03-20T15:36:21;22.42;;;2.63;;
57826;SDS011;43656;57.746;11.780;2023-03-20T15:38:50;19.63;;;2.60;;
57826;SDS011;43656;57.746;11.780;2023-03-20T15:41:26;20.73;;;2.53;;
57826;SDS011;43656;57.746;11.780;2023-03-20T15:44:00;16.55;;;1.65;;
57826;SDS011;43656;57.746;11.780;2023-03-20T15:49:26;19.35;;;3.00;;
57826;SDS011;43656;57.746;11.780;2023-03-20T15:51:55;19.27;;;2.97;;
57826;SDS011;43656;57.746;11.780;2023-03-20T15:54:27;11.15;;;2.28;;
57826;SDS011;43656;57.746;11.780;2023-03-20T15:56:55;14.23;;;2.85;;
57826;SDS011;43656;57.746;11.780;2023-03-20T15:59:24;13.27;;;2.70;;
57826;SDS011;43656;57.746;11.780;2023-03-20T16:01:53;10.88;;;2.40;;
57826;SDS011;43656;57.746;11.780;2023-03-20T16:04:21;16.52;;;2.53;;
57826;SDS011;43656;57.746;11.780;2023-03-20T16:06:48;9.93;;;2.53;;
57826;SDS011;43656;57.746;11.780;2023-03-20T16:09:17;9.63;;;2.78;;
57826;SDS011;43656;57.746;11.780;2023-03-20T16:11:44;11.35;;;2.90;;
57826;SDS011;43656;57.746;11.780;2023-03-20T16:14:17;5.40;;;2.60;;
57826;SDS011;43656;57.746;11.780;2023-03-20T16:16:46;6.37;;;3.40;;
57826;SDS011;43656;57.746;11.780;2023-03-20T16:19:13;7.72;;;4.15;;
57826;SDS011;43656;57.746;11.780;2023-03-20T16:21:39;8.82;;;6.05;;
57826;SDS011;43656;57.746;11.780;2023-03-20T16:24:37;11.98;;;7.43;;
57826;SDS011;43656;57.746;11.780;2023-03-20T16:27:07;10.73;;;5.82;;
57826;SDS011;43656;57.746;11.780;2023-03-20T16:29:34;14.27;;;9.15;;
57826;SDS011;43656;57.746;11.780;2023-03-20T16:32:23;11.95;;;7.20;;
57826;SDS011;43656;57.746;11.780;2023-03-20T16:34:54;12.32;;;7.10;;
57826;SDS011;43656;57.746;11.780;2023-03-20T16:42:56;14.13;;;8.23;;
57826;SDS011;43656;57.746;11.780;2023-03-20T16:45:28;16.63;;;7.45;;
57826;SDS011;43656;57.746;11.780;2023-03-20T16:50:41;12.15;;;7.47;;
57826;SDS011;43656;57.746;11.780;2023-03-20T16:53:09;10.80;;;6.57;;
57826;SDS011;43656;57.746;11.780;2023-03-20T16:55:36;11.02;;;6.32;;
57826;SDS011;43656;57.746;11.780;2023-03-20T16:58:10;10.70;;;5.70;;
57826;SDS011;43656;57.746;11.780;2023-03-20T17:00:48;11.63;;;6.35;;
57826;SDS011;43656;57.746;11.780;2023-03-20T17:11:36;8.30;;;4.47;;
57826;SDS011;43656;57.746;11.780;2023-03-20T17:14:03;6.95;;;4.22;;
57826;SDS011;43656;57.746;11.780;2023-03-20T17:16:29;4.97;;;3.97;;
57826;SDS011;43656;57.746;11.780;2023-03-20T17:18:58;6.68;;;4.10;;
57826;SDS011;43656;57.746;11.780;2023-03-20T17:21:23;7.75;;;4.68;;
57826;SDS011;43656;57.746;11.780;2023-03-20T17:23:49;5.95;;;4.65;;
57826;SDS011;43656;57.746;11.780;2023-03-20T17:26:15;5.15;;;3.45;;
57826;SDS011;43656;57.746;11.780;2023-03-20T17:28:40;6.38;;;3.00;;
57826;SDS011;43656;57.746;11.780;2023-03-20T17:31:08;7.20;;;3.05;;
57826;SDS011;43656;57.746;11.780;2023-03-20T17:33:37;4.65;;;3.22;;
57826;SDS011;43656;57.746;11.780;2023-03-20T17:36:04;6.05;;;3.17;;
57826;SDS011;43656;57.746;11.780;2023-03-20T17:38:34;6.50;;;4.10;;
57826;SDS011;43656;57.746;11.780;2023-03-20T17:40:59;8.18;;;3.90;;
57826;SDS011;43656;57.746;11.780;2023-03-20T17:43:25;5.90;;;3.72;;
57826;SDS011;43656;57.746;11.780;2023-03-20T17:45:50;6.82;;;3.97;;
57826;SDS011;43656;57.746;11.780;2023-03-20T17:48:17;6.38;;;3.63;;
57826;SDS011;43656;57.746;11.780;2023-03-20T17:50:45;6.20;;;3.60;;
57826;SDS011;43656;57.746;11.780;2023-03-20T17:53:24;5.72;;;3.13;;
57826;SDS011;43656;57.746;11.780;2023-03-20T17:55:53;5.55;;;3.17;;
57826;SDS011;43656;57.746;11.780;2023-03-20T17:58:20;5.43;;;3.08;;